»·PEaware :: N47NC KGEG-CYLW

N47NC :: KGEG-CYLW

FLIGHT INFORMATION

Flight Status: Arrived
Operator: Privately registered:
United States
More flights under this callsign
Pilot: Maurice C. (12314)
Aircraft: Unknown
(KODI)
More flights by this aircraft type
Origin: KGEG Spokane Intl
United States
Destination: CYLW Kelowna
Canada
More flights between these airports :: More routes between these airports
Route: +
File this flight plan on PilotEdge
Remarks:
Altitude:
(Current/Filed)
8,500ft
Speed:
(Current/Filed)
0kts
Departed: 17-Oct-18 09:10 AM
Arrived: 17-Oct-18 10:10 AM
Distance/Time
Traveled:
158nm/1:00
Distance/Time
To Go:
Arrived

Flight Plot

Page will automatically refresh every two minutes.

Flight plan parsing failed; only flown route is shown


Map Options




Map Legend


Flown Route
Filed Route
Departure Airport
Arrival Airport
Navaid (VOR, NDB)
Fix

Horizontal Profiles

Position Reports

Time Latitude Longitude Heading Altitude Ground
Speed
17-Oct-18 09:01 47.623506 -117.524473 269 2354ft 0kts
17-Oct-18 09:02 47.623506 -117.524473 269 2354ft 0kts
17-Oct-18 09:03 47.623506 -117.524473 269 2354ft 0kts
17-Oct-18 09:04 47.623506 -117.524473 269 2354ft 0kts
17-Oct-18 09:05 47.623506 -117.524473 269 2354ft 0kts
17-Oct-18 09:06 47.623506 -117.524475 269 2354ft 0kts
17-Oct-18 09:07 47.622050 -117.528529 223 2359ft 25kts
17-Oct-18 09:08 47.617175 -117.535898 226 2371ft 20kts
17-Oct-18 09:09 47.610709 -117.545643 224 2388ft 31kts
17-Oct-18 09:10 47.609485 -117.548969 316 2389ft 0kts
17-Oct-18 09:11 47.609485 -117.548969 316 2389ft 0kts
17-Oct-18 09:12 47.615182 -117.542470 43 2524ft 76kts
17-Oct-18 09:13 47.631868 -117.514672 47 3358ft 102kts
17-Oct-18 09:14 47.657217 -117.521022 324 4047ft 119kts
17-Oct-18 09:15 47.683959 -117.550197 335 4543ft 120kts
17-Oct-18 09:16 47.721304 -117.578536 335 5024ft 166kts
17-Oct-18 09:17 47.763025 -117.610472 334 5524ft 170kts
17-Oct-18 09:18 47.805146 -117.642799 334 6019ft 171kts
17-Oct-18 09:19 47.847591 -117.675450 334 6516ft 172kts
17-Oct-18 09:20 47.890119 -117.708196 333 7014ft 172kts
17-Oct-18 09:21 47.932487 -117.740880 333 7511ft 172kts
17-Oct-18 09:22 47.974907 -117.773654 333 8010ft 172kts
17-Oct-18 09:23 48.017433 -117.806582 332 8497ft 172kts
17-Oct-18 09:24 48.061844 -117.841007 332 8510ft 184kts
17-Oct-18 09:25 48.101670 -117.871944 332 8509ft 185kts
17-Oct-18 09:26 48.134709 -117.897654 332 8508ft 184kts
17-Oct-18 09:27 48.180220 -117.933129 332 8508ft 184kts
17-Oct-18 09:28 48.225645 -117.968607 332 8508ft 184kts
17-Oct-18 09:29 48.271298 -118.004311 332 8508ft 184kts
17-Oct-18 09:30 48.316674 -118.039877 331 8508ft 184kts
17-Oct-18 09:31 48.362114 -118.075619 331 8508ft 184kts
17-Oct-18 09:32 48.407667 -118.111482 331 8509ft 186kts
17-Oct-18 09:33 48.453695 -118.147792 331 8508ft 187kts
17-Oct-18 09:34 48.499609 -118.184099 331 8587ft 183kts
17-Oct-18 09:35 48.543184 -118.218647 331 9123ft 172kts
17-Oct-18 09:36 48.585201 -118.252017 330 9510ft 179kts
17-Oct-18 09:37 48.629370 -118.287173 330 9456ft 184kts
17-Oct-18 09:38 48.675013 -118.323521 330 9501ft 185kts
17-Oct-18 09:39 48.720940 -118.360197 330 9488ft 187kts
17-Oct-18 09:40 48.766876 -118.396953 330 9500ft 185kts
17-Oct-18 09:41 48.812285 -118.433353 330 9499ft 184kts
17-Oct-18 09:42 48.857392 -118.469609 330 9486ft 184kts
17-Oct-18 09:43 48.902492 -118.505947 330 9486ft 184kts
17-Oct-18 09:44 48.947550 -118.542315 330 9503ft 183kts
17-Oct-18 09:45 48.992553 -118.578707 330 9505ft 183kts
17-Oct-18 09:46 49.037637 -118.615231 330 9505ft 184kts
17-Oct-18 09:47 49.082031 -118.651273 329 9505ft 184kts
17-Oct-18 09:48 49.121812 -118.683628 329 9504ft 183kts
17-Oct-18 09:49 49.166629 -118.720156 329 9504ft 183kts
17-Oct-18 09:50 49.211704 -118.756952 329 9503ft 184kts
17-Oct-18 09:51 49.256925 -118.793973 329 9496ft 185kts
17-Oct-18 09:52 49.301903 -118.830848 329 9495ft 183kts
17-Oct-18 09:53 49.346630 -118.867618 329 9495ft 183kts
17-Oct-18 09:54 49.391500 -118.904557 329 9463ft 183kts
17-Oct-18 09:55 49.436301 -118.941529 329 9463ft 183kts
17-Oct-18 09:56 49.481078 -118.978559 329 9463ft 183kts
17-Oct-18 09:57 49.525266 -119.015193 328 9463ft 183kts
17-Oct-18 09:58 49.571190 -119.053580 329 9088ft 192kts
17-Oct-18 09:59 49.615565 -119.097928 325 8581ft 181kts
17-Oct-18 10:00 49.657792 -119.138018 325 7886ft 177kts
17-Oct-18 10:01 49.699359 -119.177568 326 7088ft 175kts
17-Oct-18 10:02 49.733760 -119.210507 325 6423ft 174kts
17-Oct-18 10:03 49.781437 -119.255570 325 5489ft 171kts
17-Oct-18 10:04 49.819080 -119.289883 325 5467ft 148kts
17-Oct-18 10:05 49.850039 -119.312922 334 5127ft 151kts
17-Oct-18 10:06 49.895085 -119.340104 335 4543ft 152kts
17-Oct-18 10:07 49.928043 -119.360074 336 4127ft 153kts
17-Oct-18 10:08 49.970110 -119.374550 355 3499ft 119kts
17-Oct-18 10:09 49.995974 -119.375285 356 3149ft 109kts
17-Oct-18 10:10 49.993174 -119.383159 175 2072ft 92kts
17-Oct-18 10:11 49.969022 -119.379512 174 1504ft 84kts
17-Oct-18 10:12 49.957628 -119.379438 205 1413ft 12kts

Navigation Log

Ident Type
Flight plan parsing failed, navigation log unavailable